createdAt,value
2023-09-25T00:02:49.222Z,2.33
2023-09-25T00:08:10.965Z,2.80
2023-09-25T00:13:32.708Z,2.40
2023-09-25T00:18:54.521Z,2.60
2023-09-25T00:24:16.352Z,2.65
2023-09-25T00:29:38.074Z,2.40
2023-09-25T00:34:59.785Z,2.88
2023-09-25T00:40:21.570Z,2.55
2023-09-25T00:45:45.340Z,2.40
2023-09-25T00:51:07.334Z,2.90
2023-09-25T00:56:29.484Z,1.90
2023-09-25T01:01:51.249Z,2.33
2023-09-25T01:07:13.121Z,1.85
2023-09-25T01:12:35.175Z,2.00
2023-09-25T01:17:57.266Z,2.30
2023-09-25T01:23:19.080Z,2.22
2023-09-25T01:28:40.769Z,1.95
2023-09-25T01:34:02.665Z,2.13
2023-09-25T01:39:24.427Z,2.10
2023-09-25T01:44:46.189Z,1.90
2023-09-25T01:50:08.260Z,1.92
2023-09-25T01:55:32.231Z,1.90
2023-09-25T02:00:53.991Z,1.88
2023-09-25T02:06:15.762Z,2.10
2023-09-25T02:11:37.948Z,1.95
2023-09-25T02:16:59.689Z,2.08
2023-09-25T02:22:21.467Z,2.25
2023-09-25T02:27:43.313Z,1.90
2023-09-25T02:33:05.319Z,2.15
2023-09-25T02:38:27.067Z,2.25
2023-09-25T02:43:48.768Z,2.30
2023-09-25T02:49:10.484Z,2.25
2023-09-25T02:54:32.361Z,2.30
2023-09-25T02:59:54.155Z,2.22
2023-09-25T03:05:15.880Z,1.88
2023-09-25T03:10:37.995Z,2.42
2023-09-25T03:15:59.819Z,2.28
2023-09-25T03:21:21.664Z,2.28
2023-09-25T03:26:43.354Z,1.95
2023-09-25T03:32:05.066Z,2.70
2023-09-25T03:37:26.854Z,2.22
2023-09-25T03:42:48.554Z,2.45
2023-09-25T03:48:10.379Z,2.55
2023-09-25T03:53:32.203Z,2.30
2023-09-25T03:58:53.902Z,2.38
2023-09-25T04:04:15.744Z,2.47
2023-09-25T04:09:37.554Z,2.22
2023-09-25T04:14:59.310Z,2.25
2023-09-25T04:20:21.230Z,2.20
2023-09-25T04:25:43.011Z,2.30
2023-09-25T04:31:05.710Z,2.65
2023-09-25T04:36:27.585Z,2.45
2023-09-25T04:41:49.314Z,2.47
2023-09-25T04:47:11.013Z,2.28
2023-09-25T04:52:32.765Z,2.25
2023-09-25T04:57:54.526Z,2.83
2023-09-25T05:03:16.411Z,2.38
2023-09-25T05:08:38.909Z,2.40
2023-09-25T05:14:00.647Z,2.58
2023-09-25T05:19:22.684Z,2.00
2023-09-25T05:24:44.403Z,2.40
2023-09-25T05:30:08.156Z,2.45
2023-09-25T05:35:29.865Z,2.45
2023-09-25T05:40:51.547Z,2.30
2023-09-25T05:46:13.255Z,2.47
2023-09-25T05:51:35.064Z,1.67
2023-09-25T05:56:56.776Z,2.25
2023-09-25T06:02:18.540Z,2.50
2023-09-25T06:07:40.308Z,2.10
2023-09-25T06:13:02.048Z,1.85
2023-09-25T06:18:23.826Z,2.05
2023-09-25T06:23:45.623Z,1.58
2023-09-25T06:29:08.359Z,1.92
2023-09-25T06:34:30.150Z,1.85
2023-09-25T06:39:52.045Z,1.95
2023-09-25T06:45:13.837Z,1.95
2023-09-25T06:50:35.684Z,1.63
2023-09-25T06:55:58.394Z,1.50
2023-09-25T07:01:20.402Z,1.00
2023-09-25T07:06:42.285Z,1.60
2023-09-25T07:12:04.182Z,1.40
2023-09-25T07:17:26.325Z,1.13
2023-09-25T07:22:48.110Z,1.48
2023-09-25T07:28:09.894Z,1.15
2023-09-25T07:33:33.279Z,1.20
2023-09-25T07:38:55.094Z,1.05
2023-09-25T07:44:17.379Z,1.40
2023-09-25T07:49:39.732Z,1.20
2023-09-25T07:55:01.501Z,1.20
2023-09-25T08:00:23.433Z,0.93
2023-09-25T08:05:45.197Z,0.90
2023-09-25T08:11:06.914Z,1.20
2023-09-25T08:16:28.723Z,1.00
2023-09-25T08:27:13.621Z,1.13
2023-09-25T08:32:36.199Z,1.20
2023-09-25T08:37:57.990Z,1.17
2023-09-25T08:43:21.235Z,1.17
2023-09-25T08:48:45.552Z,1.05
2023-09-25T08:54:08.412Z,1.20
2023-09-25T08:59:31.588Z,1.10
2023-09-25T09:04:53.335Z,1.17
2023-09-25T09:10:15.065Z,1.48
2023-09-25T09:15:37.900Z,1.25
2023-09-25T09:20:59.637Z,1.50
2023-09-25T09:26:21.462Z,1.50
2023-09-25T09:31:43.213Z,1.42
2023-09-25T09:37:07.322Z,1.33
2023-09-25T09:42:31.318Z,1.30
2023-09-25T09:47:56.099Z,1.25
2023-09-25T09:53:18.593Z,1.20
2023-09-25T09:58:40.939Z,1.17
2023-09-25T10:04:06.014Z,1.30
2023-09-25T10:09:28.046Z,1.23
2023-09-25T10:14:49.782Z,1.35
2023-09-25T10:20:30.049Z,1.15
2023-09-25T10:25:56.823Z,1.90
2023-09-25T10:31:23.421Z,1.23
2023-09-25T10:36:46.873Z,1.10
2023-09-25T10:47:32.530Z,1.20
2023-09-25T10:52:54.284Z,1.20
2023-09-25T10:58:16.384Z,1.15
2023-09-25T11:03:38.322Z,1.85
2023-09-25T11:09:06.530Z,1.05
2023-09-25T11:14:37.134Z,1.40
2023-09-25T11:19:58.925Z,1.00
2023-09-25T11:25:20.760Z,1.10
2023-09-25T11:30:42.616Z,1.30
2023-09-25T11:36:10.663Z,1.17
2023-09-25T11:41:32.386Z,1.13
2023-09-25T11:46:54.222Z,1.27
2023-09-25T11:52:15.957Z,1.05
2023-09-25T11:57:39.061Z,1.30
2023-09-25T12:03:00.856Z,1.50
2023-09-25T12:08:22.886Z,1.40
2023-09-25T12:13:44.632Z,1.38
2023-09-25T12:19:06.476Z,1.80
2023-09-25T12:24:28.342Z,1.35
2023-09-25T12:29:50.400Z,1.13
2023-09-25T12:35:12.641Z,1.30
2023-09-25T12:40:34.507Z,1.33
2023-09-25T12:45:56.396Z,1.17
2023-09-25T12:51:18.315Z,1.20
2023-09-25T12:56:40.588Z,1.67
2023-09-25T13:02:02.741Z,1.48
2023-09-25T13:07:24.504Z,1.08
2023-09-25T13:12:46.261Z,1.30
2023-09-25T13:18:08.015Z,0.95
2023-09-25T13:23:29.794Z,1.10
2023-09-25T13:28:52.836Z,1.00
2023-09-25T13:34:14.562Z,1.10
2023-09-25T13:39:36.695Z,1.40
2023-09-25T13:44:58.469Z,1.10
2023-09-25T13:50:20.245Z,1.38
2023-09-25T13:55:41.953Z,0.90
2023-09-25T14:01:03.731Z,1.45
2023-09-25T14:06:25.575Z,1.15
2023-09-25T14:11:48.506Z,1.25
2023-09-25T14:17:10.210Z,1.20
2023-09-25T14:22:31.965Z,0.98
2023-09-25T14:27:53.719Z,1.20
2023-09-25T14:33:15.528Z,0.90
2023-09-25T14:38:37.267Z,1.35
2023-09-25T14:43:58.999Z,1.25
2023-09-25T14:49:20.776Z,1.15
2023-09-25T14:54:42.583Z,1.10
2023-09-25T15:00:05.609Z,1.15
2023-09-25T15:05:27.316Z,1.00
2023-09-25T15:10:49.065Z,1.00
2023-09-25T15:16:11.026Z,1.05
2023-09-25T15:21:33.074Z,1.08
2023-09-25T15:26:54.805Z,1.20
2023-09-25T15:32:16.574Z,1.30
2023-09-25T15:37:38.421Z,1.50
2023-09-25T15:43:00.235Z,1.17
2023-09-25T15:48:22.015Z,1.30
2023-09-25T15:53:43.778Z,1.08
2023-09-25T15:59:05.617Z,1.35
2023-09-25T16:04:27.408Z,1.35
2023-09-25T16:09:49.320Z,1.35
2023-09-25T16:15:11.274Z,0.90
2023-09-25T16:20:34.045Z,1.10
2023-09-25T16:25:55.885Z,1.10
2023-09-25T16:31:17.840Z,1.90
2023-09-25T16:36:39.687Z,1.30
2023-09-25T16:42:01.516Z,1.60
2023-09-25T16:47:23.576Z,1.20
2023-09-25T16:52:45.792Z,1.35
2023-09-25T16:58:07.538Z,1.40
2023-09-25T17:03:29.422Z,1.27
2023-09-25T17:08:51.221Z,1.30
2023-09-25T17:14:12.930Z,1.67
2023-09-25T17:19:34.679Z,2.05
2023-09-25T17:24:56.463Z,1.67
2023-09-25T17:30:18.321Z,2.20
2023-09-25T17:35:40.043Z,1.58
2023-09-25T17:41:02.092Z,2.03
2023-09-25T17:46:23.953Z,2.42
2023-09-25T17:51:45.820Z,2.55
2023-09-25T17:57:07.526Z,2.10
2023-09-25T18:02:29.274Z,2.30
2023-09-25T18:07:51.071Z,2.55
2023-09-25T18:13:12.888Z,2.40
2023-09-25T18:18:34.713Z,2.35
2023-09-25T18:23:56.567Z,1.90
2023-09-25T18:29:19.003Z,2.10
2023-09-25T18:34:40.726Z,2.22
2023-09-25T18:40:04.294Z,1.95
2023-09-25T18:45:26.346Z,2.30
2023-09-25T18:50:48.124Z,2.10
2023-09-25T18:56:09.886Z,2.22
2023-09-25T19:01:31.764Z,2.10
2023-09-25T19:06:53.558Z,1.95
2023-09-25T19:12:15.322Z,2.50
2023-09-25T19:17:37.111Z,2.13
2023-09-25T19:22:58.864Z,2.58
2023-09-25T19:28:20.618Z,2.85
2023-09-25T19:39:12.079Z,2.75
2023-09-25T19:44:33.831Z,2.90
2023-09-25T19:49:55.641Z,3.40
2023-09-25T19:55:17.402Z,3.00
2023-09-25T20:00:39.240Z,3.50
2023-09-25T20:06:01.060Z,3.40
2023-09-25T20:11:22.861Z,4.10
2023-09-25T20:16:44.682Z,3.85
2023-09-25T20:22:06.602Z,4.10
2023-09-25T20:27:28.467Z,3.63
2023-09-25T20:32:50.257Z,3.60
2023-09-25T20:38:12.007Z,3.42
2023-09-25T20:43:33.742Z,3.20
2023-09-25T20:48:55.947Z,3.33
2023-09-25T20:54:17.697Z,3.75
2023-09-25T20:59:39.421Z,3.85
2023-09-25T21:05:01.196Z,3.97
2023-09-25T21:10:22.982Z,3.55
2023-09-25T21:15:44.773Z,3.60
2023-09-25T21:21:06.519Z,3.08
2023-09-25T21:26:28.248Z,3.17
2023-09-25T21:31:50.020Z,3.45
2023-09-25T21:37:11.869Z,3.90
2023-09-25T21:42:33.637Z,4.03
2023-09-25T21:47:55.699Z,3.58
2023-09-25T21:53:17.483Z,3.58
2023-09-25T21:58:39.190Z,3.60
2023-09-25T22:04:01.014Z,3.40
2023-09-25T22:09:22.867Z,3.70
2023-09-25T22:14:44.628Z,3.60
2023-09-25T22:20:06.823Z,3.13
2023-09-25T22:25:28.535Z,3.08
2023-09-25T22:30:50.320Z,3.13
2023-09-25T22:36:12.234Z,3.03
2023-09-25T22:41:33.987Z,3.28
2023-09-25T22:46:56.022Z,3.35
2023-09-25T22:52:17.835Z,3.20
2023-09-25T22:57:39.657Z,2.97
2023-09-25T23:03:01.524Z,3.10
2023-09-25T23:08:24.040Z,3.33
2023-09-25T23:13:45.855Z,3.30
2023-09-25T23:19:07.629Z,2.92
2023-09-25T23:24:29.328Z,2.90
2023-09-25T23:29:51.106Z,3.20
2023-09-25T23:35:14.568Z,3.45
2023-09-25T23:40:36.324Z,2.80
2023-09-25T23:45:58.093Z,3.00
2023-09-25T23:51:19.940Z,2.80
2023-09-25T23:56:41.629Z,2.97
